sensor_id;sensor_type;location;lat;lon;timestamp;temperature;humidity
46890;DHT22;32625;51.080;16.970;2024-02-16T00:02:03;8.30;99.90
46890;DHT22;32625;51.080;16.970;2024-02-16T00:04:30;8.30;99.90
46890;DHT22;32625;51.080;16.970;2024-02-16T00:06:58;8.30;99.90
46890;DHT22;32625;51.080;16.970;2024-02-16T00:09:25;8.30;99.90
46890;DHT22;32625;51.080;16.970;2024-02-16T00:11:52;8.30;99.90
46890;DHT22;32625;51.080;16.970;2024-02-16T00:14:20;8.30;99.90
46890;DHT22;32625;51.080;16.970;2024-02-16T00:16:47;8.30;99.90
46890;DHT22;32625;51.080;16.970;2024-02-16T00:19:15;8.40;99.90
46890;DHT22;32625;51.080;16.970;2024-02-16T00:21:43;8.40;99.90
46890;DHT22;32625;51.080;16.970;2024-02-16T00:24:10;8.40;99.90
46890;DHT22;32625;51.080;16.970;2024-02-16T00:26:38;8.40;99.90
46890;DHT22;32625;51.080;16.970;2024-02-16T00:29:07;8.40;99.90
46890;DHT22;32625;51.080;16.970;2024-02-16T00:31:34;8.40;99.90
46890;DHT22;32625;51.080;16.970;2024-02-16T00:34:01;8.40;99.90
46890;DHT22;32625;51.080;16.970;2024-02-16T00:36:29;8.50;99.90
46890;DHT22;32625;51.080;16.970;2024-02-16T00:38:58;8.40;99.90
46890;DHT22;32625;51.080;16.970;2024-02-16T00:41:25;8.50;99.90
46890;DHT22;32625;51.080;16.970;2024-02-16T00:43:53;8.40;99.90
46890;DHT22;32625;51.080;16.970;2024-02-16T00:46:20;8.40;99.90
46890;DHT22;32625;51.080;16.970;2024-02-16T00:48:52;8.40;99.90
46890;DHT22;32625;51.080;16.970;2024-02-16T00:51:20;8.40;99.90
46890;DHT22;32625;51.080;16.970;2024-02-16T00:53:47;8.30;99.90
46890;DHT22;32625;51.080;16.970;2024-02-16T00:56:15;8.30;99.90
46890;DHT22;32625;51.080;16.970;2024-02-16T00:58:42;8.20;99.90
46890;DHT22;32625;51.080;16.970;2024-02-16T01:01:10;8.20;99.90
46890;DHT22;32625;51.080;16.970;2024-02-16T01:03:39;8.20;99.90
46890;DHT22;32625;51.080;16.970;2024-02-16T01:06:07;8.10;99.90
46890;DHT22;32625;51.080;16.970;2024-02-16T01:08:36;8.00;99.90
46890;DHT22;32625;51.080;16.970;2024-02-16T01:11:03;8.00;99.90
46890;DHT22;32625;51.080;16.970;2024-02-16T01:13:30;7.90;99.90
46890;DHT22;32625;51.080;16.970;2024-02-16T01:15:59;7.90;99.90
46890;DHT22;32625;51.080;16.970;2024-02-16T01:18:28;7.90;99.90
46890;DHT22;32625;51.080;16.970;2024-02-16T01:20:56;7.80;99.90
46890;DHT22;32625;51.080;16.970;2024-02-16T01:23:23;7.80;99.90
46890;DHT22;32625;51.080;16.970;2024-02-16T01:25:50;7.70;99.90
46890;DHT22;32625;51.080;16.970;2024-02-16T01:28:18;7.70;99.90
46890;DHT22;32625;51.080;16.970;2024-02-16T01:30:45;7.60;99.90
46890;DHT22;32625;51.080;16.970;2024-02-16T01:33:14;7.60;99.90
46890;DHT22;32625;51.080;16.970;2024-02-16T01:35:41;7.60;99.90
46890;DHT22;32625;51.080;16.970;2024-02-16T01:38:08;7.60;99.90
46890;DHT22;32625;51.080;16.970;2024-02-16T01:40:36;7.50;99.90
46890;DHT22;32625;51.080;16.970;2024-02-16T01:43:03;7.50;99.90
46890;DHT22;32625;51.080;16.970;2024-02-16T01:45:30;7.40;99.90
46890;DHT22;32625;51.080;16.970;2024-02-16T01:47:57;7.40;99.90
46890;DHT22;32625;51.080;16.970;2024-02-16T01:50:26;7.40;99.90
46890;DHT22;32625;51.080;16.970;2024-02-16T01:52:56;7.40;99.90
46890;DHT22;32625;51.080;16.970;2024-02-16T01:55:23;7.40;99.90
46890;DHT22;32625;51.080;16.970;2024-02-16T01:57:55;7.40;99.90
46890;DHT22;32625;51.080;16.970;2024-02-16T02:00:23;7.40;99.90
46890;DHT22;32625;51.080;16.970;2024-02-16T02:02:50;7.40;99.90
46890;DHT22;32625;51.080;16.970;2024-02-16T02:05:18;7.40;99.90
46890;DHT22;32625;51.080;16.970;2024-02-16T02:07:45;7.30;99.90
46890;DHT22;32625;51.080;16.970;2024-02-16T02:10:12;7.30;99.90
46890;DHT22;32625;51.080;16.970;2024-02-16T02:12:40;7.40;99.90
46890;DHT22;32625;51.080;16.970;2024-02-16T02:15:09;7.30;99.90
46890;DHT22;32625;51.080;16.970;2024-02-16T02:17:36;7.30;99.90
46890;DHT22;32625;51.080;16.970;2024-02-16T02:20:03;7.30;99.90
46890;DHT22;32625;51.080;16.970;2024-02-16T02:22:33;7.20;99.90
46890;DHT22;32625;51.080;16.970;2024-02-16T02:25:00;7.20;99.90
46890;DHT22;32625;51.080;16.970;2024-02-16T02:27:27;7.20;99.90
46890;DHT22;32625;51.080;16.970;2024-02-16T02:29:55;7.20;99.90
46890;DHT22;32625;51.080;16.970;2024-02-16T02:32:22;7.10;99.90
46890;DHT22;32625;51.080;16.970;2024-02-16T02:34:49;7.10;99.90
46890;DHT22;32625;51.080;16.970;2024-02-16T02:40:20;7.00;99.90
46890;DHT22;32625;51.080;16.970;2024-02-16T02:42:48;6.90;99.90
46890;DHT22;32625;51.080;16.970;2024-02-16T02:45:15;6.90;99.90
46890;DHT22;32625;51.080;16.970;2024-02-16T02:47:42;6.90;99.90
46890;DHT22;32625;51.080;16.970;2024-02-16T02:50:10;6.90;99.90
46890;DHT22;32625;51.080;16.970;2024-02-16T02:52:37;6.80;99.90
46890;DHT22;32625;51.080;16.970;2024-02-16T02:55:05;6.80;99.90
46890;DHT22;32625;51.080;16.970;2024-02-16T02:57:32;6.80;99.90
46890;DHT22;32625;51.080;16.970;2024-02-16T03:00:05;6.70;99.90
46890;DHT22;32625;51.080;16.970;2024-02-16T03:02:33;6.70;99.90
46890;DHT22;32625;51.080;16.970;2024-02-16T03:05:00;6.70;99.90
46890;DHT22;32625;51.080;16.970;2024-02-16T03:07:27;6.70;99.90
46890;DHT22;32625;51.080;16.970;2024-02-16T03:09:54;6.70;99.90
46890;DHT22;32625;51.080;16.970;2024-02-16T03:12:21;6.60;99.90
46890;DHT22;32625;51.080;16.970;2024-02-16T03:14:49;6.60;99.90
46890;DHT22;32625;51.080;16.970;2024-02-16T03:17:16;6.60;99.90
46890;DHT22;32625;51.080;16.970;2024-02-16T03:19:43;6.60;99.90
46890;DHT22;32625;51.080;16.970;2024-02-16T03:22:10;6.60;99.90
46890;DHT22;32625;51.080;16.970;2024-02-16T03:24:37;6.50;99.90
46890;DHT22;32625;51.080;16.970;2024-02-16T03:27:04;6.50;99.90
46890;DHT22;32625;51.080;16.970;2024-02-16T03:29:32;6.50;99.90
46890;DHT22;32625;51.080;16.970;2024-02-16T03:31:59;6.50;99.90
46890;DHT22;32625;51.080;16.970;2024-02-16T03:34:26;6.50;99.90
46890;DHT22;32625;51.080;16.970;2024-02-16T03:36:53;6.40;99.90
46890;DHT22;32625;51.080;16.970;2024-02-16T03:39:20;6.40;99.90
46890;DHT22;32625;51.080;16.970;2024-02-16T03:41:48;6.40;99.90
46890;DHT22;32625;51.080;16.970;2024-02-16T03:44:15;6.40;99.90
46890;DHT22;32625;51.080;16.970;2024-02-16T03:46:43;6.40;99.90
46890;DHT22;32625;51.080;16.970;2024-02-16T03:49:10;6.40;99.90
46890;DHT22;32625;51.080;16.970;2024-02-16T03:51:37;6.30;99.90
46890;DHT22;32625;51.080;16.970;2024-02-16T03:54:04;6.30;99.90
46890;DHT22;32625;51.080;16.970;2024-02-16T03:56:31;6.30;99.90
46890;DHT22;32625;51.080;16.970;2024-02-16T03:58:58;6.30;99.90
46890;DHT22;32625;51.080;16.970;2024-02-16T04:01:25;6.30;99.90
46890;DHT22;32625;51.080;16.970;2024-02-16T04:03:52;6.20;99.90
46890;DHT22;32625;51.080;16.970;2024-02-16T04:06:20;6.20;99.90
46890;DHT22;32625;51.080;16.970;2024-02-16T04:08:47;6.20;99.90
46890;DHT22;32625;51.080;16.970;2024-02-16T04:11:15;6.20;99.90
46890;DHT22;32625;51.080;16.970;2024-02-16T04:13:43;6.20;99.90
46890;DHT22;32625;51.080;16.970;2024-02-16T04:16:09;6.20;99.90
46890;DHT22;32625;51.080;16.970;2024-02-16T04:18:37;6.20;99.90
46890;DHT22;32625;51.080;16.970;2024-02-16T04:21:04;6.20;99.90
46890;DHT22;32625;51.080;16.970;2024-02-16T04:23:32;6.10;99.90
46890;DHT22;32625;51.080;16.970;2024-02-16T04:25:59;6.10;99.90
46890;DHT22;32625;51.080;16.970;2024-02-16T04:28:26;6.10;99.90
46890;DHT22;32625;51.080;16.970;2024-02-16T04:30:53;6.10;99.90
46890;DHT22;32625;51.080;16.970;2024-02-16T04:33:20;6.10;99.90
46890;DHT22;32625;51.080;16.970;2024-02-16T04:35:47;6.10;99.90
46890;DHT22;32625;51.080;16.970;2024-02-16T04:38:15;6.10;99.90
46890;DHT22;32625;51.080;16.970;2024-02-16T04:40:42;6.10;99.90
46890;DHT22;32625;51.080;16.970;2024-02-16T04:43:09;6.10;99.90
46890;DHT22;32625;51.080;16.970;2024-02-16T04:45:36;6.10;99.90
46890;DHT22;32625;51.080;16.970;2024-02-16T04:48:07;6.10;99.90
46890;DHT22;32625;51.080;16.970;2024-02-16T04:50:35;6.10;99.90
46890;DHT22;32625;51.080;16.970;2024-02-16T04:53:02;6.10;99.90
46890;DHT22;32625;51.080;16.970;2024-02-16T04:55:30;6.10;99.90
46890;DHT22;32625;51.080;16.970;2024-02-16T04:57:57;6.10;99.90
46890;DHT22;32625;51.080;16.970;2024-02-16T05:00:25;6.10;99.90
46890;DHT22;32625;51.080;16.970;2024-02-16T05:02:52;6.10;99.90
46890;DHT22;32625;51.080;16.970;2024-02-16T05:05:20;6.10;99.90
46890;DHT22;32625;51.080;16.970;2024-02-16T05:07:48;6.10;99.90
46890;DHT22;32625;51.080;16.970;2024-02-16T05:10:16;6.10;99.90
46890;DHT22;32625;51.080;16.970;2024-02-16T05:12:43;6.10;99.90
46890;DHT22;32625;51.080;16.970;2024-02-16T05:15:10;6.10;99.90
46890;DHT22;32625;51.080;16.970;2024-02-16T05:17:40;6.10;99.90
46890;DHT22;32625;51.080;16.970;2024-02-16T05:20:13;6.10;99.90
46890;DHT22;32625;51.080;16.970;2024-02-16T05:22:46;6.10;99.90
46890;DHT22;32625;51.080;16.970;2024-02-16T05:25:13;6.00;99.90
46890;DHT22;32625;51.080;16.970;2024-02-16T05:27:41;6.10;99.90
46890;DHT22;32625;51.080;16.970;2024-02-16T05:30:12;6.10;99.90
46890;DHT22;32625;51.080;16.970;2024-02-16T05:32:43;6.10;99.90
46890;DHT22;32625;51.080;16.970;2024-02-16T05:35:11;6.10;99.90
46890;DHT22;32625;51.080;16.970;2024-02-16T05:37:40;6.10;99.90
46890;DHT22;32625;51.080;16.970;2024-02-16T05:40:11;6.10;99.90
46890;DHT22;32625;51.080;16.970;2024-02-16T05:42:56;6.10;99.90
46890;DHT22;32625;51.080;16.970;2024-02-16T05:45:26;6.10;99.90
46890;DHT22;32625;51.080;16.970;2024-02-16T05:47:54;6.10;99.90
46890;DHT22;32625;51.080;16.970;2024-02-16T05:50:21;6.10;99.90
46890;DHT22;32625;51.080;16.970;2024-02-16T05:52:49;6.10;99.90
46890;DHT22;32625;51.080;16.970;2024-02-16T05:55:17;6.10;99.90
46890;DHT22;32625;51.080;16.970;2024-02-16T05:57:47;6.10;99.90
46890;DHT22;32625;51.080;16.970;2024-02-16T06:00:15;6.10;99.90
46890;DHT22;32625;51.080;16.970;2024-02-16T06:02:43;6.10;99.90
46890;DHT22;32625;51.080;16.970;2024-02-16T06:05:10;6.10;99.90
46890;DHT22;32625;51.080;16.970;2024-02-16T06:07:37;6.10;99.90
46890;DHT22;32625;51.080;16.970;2024-02-16T06:10:06;6.00;99.90
46890;DHT22;32625;51.080;16.970;2024-02-16T06:12:38;6.00;99.90
46890;DHT22;32625;51.080;16.970;2024-02-16T06:15:05;6.00;99.90
46890;DHT22;32625;51.080;16.970;2024-02-16T06:17:33;6.00;99.90
46890;DHT22;32625;51.080;16.970;2024-02-16T06:20:00;6.00;99.90
46890;DHT22;32625;51.080;16.970;2024-02-16T06:22:28;6.00;99.90
46890;DHT22;32625;51.080;16.970;2024-02-16T06:24:55;5.90;99.90
46890;DHT22;32625;51.080;16.970;2024-02-16T06:27:22;6.00;99.90
46890;DHT22;32625;51.080;16.970;2024-02-16T06:29:50;6.00;99.90
46890;DHT22;32625;51.080;16.970;2024-02-16T06:32:17;5.90;99.90
46890;DHT22;32625;51.080;16.970;2024-02-16T06:34:45;6.00;99.90
46890;DHT22;32625;51.080;16.970;2024-02-16T06:37:15;6.00;99.90
46890;DHT22;32625;51.080;16.970;2024-02-16T06:39:42;6.00;99.90
46890;DHT22;32625;51.080;16.970;2024-02-16T06:42:10;6.00;99.90
46890;DHT22;32625;51.080;16.970;2024-02-16T06:44:40;6.00;99.90
46890;DHT22;32625;51.080;16.970;2024-02-16T06:47:07;6.00;99.90
46890;DHT22;32625;51.080;16.970;2024-02-16T06:49:34;6.00;99.90
46890;DHT22;32625;51.080;16.970;2024-02-16T06:52:01;6.00;99.90
46890;DHT22;32625;51.080;16.970;2024-02-16T06:54:28;6.10;99.90
46890;DHT22;32625;51.080;16.970;2024-02-16T06:56:55;6.10;99.90
46890;DHT22;32625;51.080;16.970;2024-02-16T06:59:23;6.10;99.90
46890;DHT22;32625;51.080;16.970;2024-02-16T07:01:50;6.10;99.90
46890;DHT22;32625;51.080;16.970;2024-02-16T07:04:16;6.20;99.90
46890;DHT22;32625;51.080;16.970;2024-02-16T07:06:44;6.20;99.90
46890;DHT22;32625;51.080;16.970;2024-02-16T07:09:11;6.20;99.90
46890;DHT22;32625;51.080;16.970;2024-02-16T07:11:42;6.30;99.90
46890;DHT22;32625;51.080;16.970;2024-02-16T07:14:17;6.40;99.90
46890;DHT22;32625;51.080;16.970;2024-02-16T07:16:44;6.40;99.90
46890;DHT22;32625;51.080;16.970;2024-02-16T07:19:11;6.40;99.90
46890;DHT22;32625;51.080;16.970;2024-02-16T07:21:40;6.50;99.90
46890;DHT22;32625;51.080;16.970;2024-02-16T07:24:07;6.50;99.90
46890;DHT22;32625;51.080;16.970;2024-02-16T07:26:35;6.60;99.90
46890;DHT22;32625;51.080;16.970;2024-02-16T07:29:03;6.60;99.90
46890;DHT22;32625;51.080;16.970;2024-02-16T07:31:34;6.70;99.90
46890;DHT22;32625;51.080;16.970;2024-02-16T07:34:02;6.80;99.90
46890;DHT22;32625;51.080;16.970;2024-02-16T07:36:29;6.90;99.90
46890;DHT22;32625;51.080;16.970;2024-02-16T07:38:57;6.90;99.90
46890;DHT22;32625;51.080;16.970;2024-02-16T07:41:25;7.00;99.90
46890;DHT22;32625;51.080;16.970;2024-02-16T07:43:51;7.00;99.90
46890;DHT22;32625;51.080;16.970;2024-02-16T07:46:18;7.00;99.90
46890;DHT22;32625;51.080;16.970;2024-02-16T07:48:45;7.10;99.90
46890;DHT22;32625;51.080;16.970;2024-02-16T07:51:13;7.10;99.90
46890;DHT22;32625;51.080;16.970;2024-02-16T07:53:40;7.20;99.90
46890;DHT22;32625;51.080;16.970;2024-02-16T07:56:09;7.20;99.90
46890;DHT22;32625;51.080;16.970;2024-02-16T07:58:36;7.30;99.90
46890;DHT22;32625;51.080;16.970;2024-02-16T08:01:03;7.40;99.90
46890;DHT22;32625;51.080;16.970;2024-02-16T08:03:30;7.50;99.90
46890;DHT22;32625;51.080;16.970;2024-02-16T08:05:57;7.60;99.90
46890;DHT22;32625;51.080;16.970;2024-02-16T08:08:25;7.60;99.90
46890;DHT22;32625;51.080;16.970;2024-02-16T08:10:52;7.70;99.90
46890;DHT22;32625;51.080;16.970;2024-02-16T08:13:19;7.80;99.90
46890;DHT22;32625;51.080;16.970;2024-02-16T08:15:47;7.80;99.90
46890;DHT22;32625;51.080;16.970;2024-02-16T08:18:14;7.90;99.90
46890;DHT22;32625;51.080;16.970;2024-02-16T08:20:43;8.00;99.90
46890;DHT22;32625;51.080;16.970;2024-02-16T08:23:10;8.10;99.90
46890;DHT22;32625;51.080;16.970;2024-02-16T08:25:37;8.20;99.90
46890;DHT22;32625;51.080;16.970;2024-02-16T08:28:04;8.30;99.90
46890;DHT22;32625;51.080;16.970;2024-02-16T08:30:31;8.50;99.90
46890;DHT22;32625;51.080;16.970;2024-02-16T08:33:00;8.60;99.90
46890;DHT22;32625;51.080;16.970;2024-02-16T08:35:27;8.70;99.90
46890;DHT22;32625;51.080;16.970;2024-02-16T08:37:54;8.80;99.90
46890;DHT22;32625;51.080;16.970;2024-02-16T08:40:21;9.00;99.90
46890;DHT22;32625;51.080;16.970;2024-02-16T08:42:48;9.20;99.90
46890;DHT22;32625;51.080;16.970;2024-02-16T08:45:15;9.20;99.90
46890;DHT22;32625;51.080;16.970;2024-02-16T08:47:44;9.40;99.90
46890;DHT22;32625;51.080;16.970;2024-02-16T08:50:13;9.50;99.90
46890;DHT22;32625;51.080;16.970;2024-02-16T08:52:40;9.50;99.90
46890;DHT22;32625;51.080;16.970;2024-02-16T08:55:08;9.60;99.90
46890;DHT22;32625;51.080;16.970;2024-02-16T08:57:35;9.60;99.90
46890;DHT22;32625;51.080;16.970;2024-02-16T09:00:02;9.70;99.90
46890;DHT22;32625;51.080;16.970;2024-02-16T09:02:30;9.70;99.90
46890;DHT22;32625;51.080;16.970;2024-02-16T09:04:57;9.80;99.90
46890;DHT22;32625;51.080;16.970;2024-02-16T09:07:24;9.90;99.90
46890;DHT22;32625;51.080;16.970;2024-02-16T09:09:53;10.00;99.90
46890;DHT22;32625;51.080;16.970;2024-02-16T09:12:20;10.00;99.90
46890;DHT22;32625;51.080;16.970;2024-02-16T09:14:48;10.10;99.90
46890;DHT22;32625;51.080;16.970;2024-02-16T09:17:15;10.20;99.90
46890;DHT22;32625;51.080;16.970;2024-02-16T09:19:42;10.40;99.90
46890;DHT22;32625;51.080;16.970;2024-02-16T09:22:09;10.40;99.90
46890;DHT22;32625;51.080;16.970;2024-02-16T09:24:36;10.50;99.90
46890;DHT22;32625;51.080;16.970;2024-02-16T09:27:04;10.60;99.90
46890;DHT22;32625;51.080;16.970;2024-02-16T09:29:31;10.70;99.90
46890;DHT22;32625;51.080;16.970;2024-02-16T09:31:59;10.80;99.90
46890;DHT22;32625;51.080;16.970;2024-02-16T09:34:27;10.80;99.90
46890;DHT22;32625;51.080;16.970;2024-02-16T09:36:54;10.80;99.90
46890;DHT22;32625;51.080;16.970;2024-02-16T09:39:21;10.80;99.90
46890;DHT22;32625;51.080;16.970;2024-02-16T09:41:50;10.80;99.90
46890;DHT22;32625;51.080;16.970;2024-02-16T09:44:20;10.80;99.90
46890;DHT22;32625;51.080;16.970;2024-02-16T09:46:48;10.80;99.90
46890;DHT22;32625;51.080;16.970;2024-02-16T09:49:18;10.80;99.90
46890;DHT22;32625;51.080;16.970;2024-02-16T09:52:02;10.80;99.90
46890;DHT22;32625;51.080;16.970;2024-02-16T09:54:34;10.70;99.90
46890;DHT22;32625;51.080;16.970;2024-02-16T09:57:02;10.80;99.90
46890;DHT22;32625;51.080;16.970;2024-02-16T09:59:31;10.80;99.90
46890;DHT22;32625;51.080;16.970;2024-02-16T10:02:03;10.80;99.90
46890;DHT22;32625;51.080;16.970;2024-02-16T10:04:30;10.80;99.90
46890;DHT22;32625;51.080;16.970;2024-02-16T10:07:03;10.90;99.90
46890;DHT22;32625;51.080;16.970;2024-02-16T10:09:38;11.00;99.90
46890;DHT22;32625;51.080;16.970;2024-02-16T10:12:07;11.10;99.90
46890;DHT22;32625;51.080;16.970;2024-02-16T10:14:34;11.10;99.90
46890;DHT22;32625;51.080;16.970;2024-02-16T10:17:03;11.20;99.90
46890;DHT22;32625;51.080;16.970;2024-02-16T10:19:31;11.20;99.90
46890;DHT22;32625;51.080;16.970;2024-02-16T10:22:12;11.30;99.90
46890;DHT22;32625;51.080;16.970;2024-02-16T10:24:40;11.40;99.90
46890;DHT22;32625;51.080;16.970;2024-02-16T10:27:18;11.50;99.90
46890;DHT22;32625;51.080;16.970;2024-02-16T10:29:54;11.60;99.90
46890;DHT22;32625;51.080;16.970;2024-02-16T10:32:21;11.70;99.90
46890;DHT22;32625;51.080;16.970;2024-02-16T10:34:51;11.80;99.90
46890;DHT22;32625;51.080;16.970;2024-02-16T10:37:18;11.80;99.90
46890;DHT22;32625;51.080;16.970;2024-02-16T10:39:46;11.80;99.90
46890;DHT22;32625;51.080;16.970;2024-02-16T10:42:15;11.90;99.90
46890;DHT22;32625;51.080;16.970;2024-02-16T10:44:44;12.00;99.90
46890;DHT22;32625;51.080;16.970;2024-02-16T10:47:12;12.10;99.90
46890;DHT22;32625;51.080;16.970;2024-02-16T10:49:39;12.10;99.90
46890;DHT22;32625;51.080;16.970;2024-02-16T10:52:07;12.20;99.90
46890;DHT22;32625;51.080;16.970;2024-02-16T10:54:35;12.20;99.90
46890;DHT22;32625;51.080;16.970;2024-02-16T10:57:08;12.30;99.90
46890;DHT22;32625;51.080;16.970;2024-02-16T10:59:43;12.30;99.90
46890;DHT22;32625;51.080;16.970;2024-02-16T11:02:11;12.40;99.90
46890;DHT22;32625;51.080;16.970;2024-02-16T11:04:39;12.50;99.10
46890;DHT22;32625;51.080;16.970;2024-02-16T11:07:17;12.50;99.30
46890;DHT22;32625;51.080;16.970;2024-02-16T11:09:46;12.60;99.90
46890;DHT22;32625;51.080;16.970;2024-02-16T11:12:14;12.60;98.10
46890;DHT22;32625;51.080;16.970;2024-02-16T11:14:46;12.70;99.40
46890;DHT22;32625;51.080;16.970;2024-02-16T11:17:23;12.70;98.60
46890;DHT22;32625;51.080;16.970;2024-02-16T11:19:50;12.80;97.80
46890;DHT22;32625;51.080;16.970;2024-02-16T11:22:22;12.90;97.80
46890;DHT22;32625;51.080;16.970;2024-02-16T11:24:53;12.90;96.40
46890;DHT22;32625;51.080;16.970;2024-02-16T11:27:26;13.00;96.30
46890;DHT22;32625;51.080;16.970;2024-02-16T11:29:54;13.00;96.00
46890;DHT22;32625;51.080;16.970;2024-02-16T11:32:22;13.00;95.50
46890;DHT22;32625;51.080;16.970;2024-02-16T11:34:49;13.10;95.90
46890;DHT22;32625;51.080;16.970;2024-02-16T11:37:17;13.00;96.00
46890;DHT22;32625;51.080;16.970;2024-02-16T11:39:44;13.00;96.60
46890;DHT22;32625;51.080;16.970;2024-02-16T11:42:19;13.00;96.60
46890;DHT22;32625;51.080;16.970;2024-02-16T11:44:54;13.00;97.00
46890;DHT22;32625;51.080;16.970;2024-02-16T11:47:24;13.00;95.80
46890;DHT22;32625;51.080;16.970;2024-02-16T11:50:03;13.10;94.90
46890;DHT22;32625;51.080;16.970;2024-02-16T11:52:32;13.10;96.20
46890;DHT22;32625;51.080;16.970;2024-02-16T11:54:59;13.10;95.60
46890;DHT22;32625;51.080;16.970;2024-02-16T11:57:29;13.20;95.00
46890;DHT22;32625;51.080;16.970;2024-02-16T11:59:56;13.20;95.20
46890;DHT22;32625;51.080;16.970;2024-02-16T12:02:24;13.20;94.70
46890;DHT22;32625;51.080;16.970;2024-02-16T12:04:59;13.30;94.90
46890;DHT22;32625;51.080;16.970;2024-02-16T12:07:30;13.30;93.70
46890;DHT22;32625;51.080;16.970;2024-02-16T12:09:59;13.40;93.10
46890;DHT22;32625;51.080;16.970;2024-02-16T12:12:27;13.40;93.80
46890;DHT22;32625;51.080;16.970;2024-02-16T12:14:55;13.40;94.50
46890;DHT22;32625;51.080;16.970;2024-02-16T12:17:23;13.40;94.10
46890;DHT22;32625;51.080;16.970;2024-02-16T12:19:52;13.30;95.00
46890;DHT22;32625;51.080;16.970;2024-02-16T12:22:20;13.40;94.00
46890;DHT22;32625;51.080;16.970;2024-02-16T12:24:50;13.40;93.20
46890;DHT22;32625;51.080;16.970;2024-02-16T12:27:18;13.40;92.80
46890;DHT22;32625;51.080;16.970;2024-02-16T12:29:45;13.40;92.50
46890;DHT22;32625;51.080;16.970;2024-02-16T12:32:13;13.40;93.10
46890;DHT22;32625;51.080;16.970;2024-02-16T12:34:46;13.40;93.40
46890;DHT22;32625;51.080;16.970;2024-02-16T12:37:13;13.30;94.50
46890;DHT22;32625;51.080;16.970;2024-02-16T12:39:40;13.40;94.00
46890;DHT22;32625;51.080;16.970;2024-02-16T12:42:08;13.40;94.00
46890;DHT22;32625;51.080;16.970;2024-02-16T12:44:35;13.40;93.30
46890;DHT22;32625;51.080;16.970;2024-02-16T12:47:02;13.40;93.40
46890;DHT22;32625;51.080;16.970;2024-02-16T12:49:29;13.50;92.90
46890;DHT22;32625;51.080;16.970;2024-02-16T12:51:57;13.60;92.70
46890;DHT22;32625;51.080;16.970;2024-02-16T12:54:24;13.60;92.80
46890;DHT22;32625;51.080;16.970;2024-02-16T12:56:51;13.60;92.70
46890;DHT22;32625;51.080;16.970;2024-02-16T12:59:20;13.60;92.70
46890;DHT22;32625;51.080;16.970;2024-02-16T13:01:46;13.60;93.00
46890;DHT22;32625;51.080;16.970;2024-02-16T13:04:14;13.50;92.90
46890;DHT22;32625;51.080;16.970;2024-02-16T13:06:48;13.40;94.00
46890;DHT22;32625;51.080;16.970;2024-02-16T13:09:16;13.30;94.10
46890;DHT22;32625;51.080;16.970;2024-02-16T13:11:43;13.30;95.10
46890;DHT22;32625;51.080;16.970;2024-02-16T13:14:10;13.20;95.20
46890;DHT22;32625;51.080;16.970;2024-02-16T13:16:37;13.30;95.80
46890;DHT22;32625;51.080;16.970;2024-02-16T13:19:04;13.30;95.60
46890;DHT22;32625;51.080;16.970;2024-02-16T13:21:31;13.30;95.00
46890;DHT22;32625;51.080;16.970;2024-02-16T13:23:58;13.40;93.90
46890;DHT22;32625;51.080;16.970;2024-02-16T13:26:26;13.40;93.40
46890;DHT22;32625;51.080;16.970;2024-02-16T13:28:53;13.50;93.40
46890;DHT22;32625;51.080;16.970;2024-02-16T13:31:22;13.50;93.40
46890;DHT22;32625;51.080;16.970;2024-02-16T13:33:51;13.40;93.80
46890;DHT22;32625;51.080;16.970;2024-02-16T13:36:18;13.40;94.30
46890;DHT22;32625;51.080;16.970;2024-02-16T13:38:45;13.30;94.10
46890;DHT22;32625;51.080;16.970;2024-02-16T13:41:13;13.30;95.10
46890;DHT22;32625;51.080;16.970;2024-02-16T13:43:44;13.20;95.00
46890;DHT22;32625;51.080;16.970;2024-02-16T13:46:11;13.20;95.20
46890;DHT22;32625;51.080;16.970;2024-02-16T13:48:38;13.20;95.50
46890;DHT22;32625;51.080;16.970;2024-02-16T13:51:07;13.20;96.30
46890;DHT22;32625;51.080;16.970;2024-02-16T13:53:35;13.10;97.40
46890;DHT22;32625;51.080;16.970;2024-02-16T13:56:02;13.10;97.50
46890;DHT22;32625;51.080;16.970;2024-02-16T13:58:31;13.00;97.50
46890;DHT22;32625;51.080;16.970;2024-02-16T14:00:59;13.00;98.30
46890;DHT22;32625;51.080;16.970;2024-02-16T14:03:26;13.00;97.50
46890;DHT22;32625;51.080;16.970;2024-02-16T14:05:53;13.00;97.30
46890;DHT22;32625;51.080;16.970;2024-02-16T14:08:20;13.00;98.10
46890;DHT22;32625;51.080;16.970;2024-02-16T14:10:47;12.90;97.50
46890;DHT22;32625;51.080;16.970;2024-02-16T14:13:14;12.90;98.00
46890;DHT22;32625;51.080;16.970;2024-02-16T14:15:43;12.90;98.20
46890;DHT22;32625;51.080;16.970;2024-02-16T14:18:10;12.80;99.60
46890;DHT22;32625;51.080;16.970;2024-02-16T14:20:47;12.80;99.90
46890;DHT22;32625;51.080;16.970;2024-02-16T14:23:14;12.70;99.70
46890;DHT22;32625;51.080;16.970;2024-02-16T14:25:41;12.70;99.90
46890;DHT22;32625;51.080;16.970;2024-02-16T14:28:08;12.70;99.90
46890;DHT22;32625;51.080;16.970;2024-02-16T14:30:35;12.70;99.70
46890;DHT22;32625;51.080;16.970;2024-02-16T14:33:03;12.70;99.80
46890;DHT22;32625;51.080;16.970;2024-02-16T14:35:33;12.70;99.90
46890;DHT22;32625;51.080;16.970;2024-02-16T14:38:04;12.60;99.70
46890;DHT22;32625;51.080;16.970;2024-02-16T14:40:34;12.60;99.90
46890;DHT22;32625;51.080;16.970;2024-02-16T14:43:01;12.60;99.90
46890;DHT22;32625;51.080;16.970;2024-02-16T14:45:28;12.60;99.90
46890;DHT22;32625;51.080;16.970;2024-02-16T14:47:55;12.60;99.90
46890;DHT22;32625;51.080;16.970;2024-02-16T14:50:23;12.50;99.90
46890;DHT22;32625;51.080;16.970;2024-02-16T14:52:50;12.50;99.90
46890;DHT22;32625;51.080;16.970;2024-02-16T14:55:17;12.50;99.90
46890;DHT22;32625;51.080;16.970;2024-02-16T14:57:44;12.50;99.90
46890;DHT22;32625;51.080;16.970;2024-02-16T15:00:12;12.40;99.90
46890;DHT22;32625;51.080;16.970;2024-02-16T15:02:40;12.40;99.90
46890;DHT22;32625;51.080;16.970;2024-02-16T15:05:09;12.40;99.90
46890;DHT22;32625;51.080;16.970;2024-02-16T15:07:36;12.40;99.90
46890;DHT22;32625;51.080;16.970;2024-02-16T15:10:04;12.30;99.90
46890;DHT22;32625;51.080;16.970;2024-02-16T15:12:31;12.30;99.90
46890;DHT22;32625;51.080;16.970;2024-02-16T15:14:59;12.20;99.90
46890;DHT22;32625;51.080;16.970;2024-02-16T15:17:26;12.20;99.90
46890;DHT22;32625;51.080;16.970;2024-02-16T15:19:54;12.10;99.90
46890;DHT22;32625;51.080;16.970;2024-02-16T15:22:22;12.10;99.90
46890;DHT22;32625;51.080;16.970;2024-02-16T15:24:50;12.10;99.90
46890;DHT22;32625;51.080;16.970;2024-02-16T15:27:17;12.00;99.90
46890;DHT22;32625;51.080;16.970;2024-02-16T15:29:44;11.90;99.90
46890;DHT22;32625;51.080;16.970;2024-02-16T15:32:12;11.90;99.90
46890;DHT22;32625;51.080;16.970;2024-02-16T15:34:39;11.90;99.90